Time;durP1;ratioP1;P1;durP2;ratioP2;P2;SDS_P1;SDS_P2;PMS_P1;PMS_P2;Temp;Humidity;BMP_temperature;BMP_pressure;BME280_temperature;BME280_humidity;BME280_pressure;Samples;Min_cycle;Max_cycle;Signal;HPM_P1;HPM_P2
2022/08/25 00:00:02;;;;;;;5.8;3.5;;;;;;;;;;;;;
2022/08/25 00:02:29;;;;;;;4.7;3.9;;;;;;;;;;;;;
2022/08/25 00:05:02;;;;;;;4.1;3.5;;;;;;;;;;;;;
2022/08/25 00:07:32;;;;;;;5.3;3.7;;;;;;;;;;;;;
2022/08/25 00:10:00;;;;;;;8.5;4.5;;;;;;;;;;;;;
2022/08/25 00:12:31;;;;;;;4.4;4;;;;;;;;;;;;;
2022/08/25 00:14:59;;;;;;;4.2;3.5;;;;;;;;;;;;;
2022/08/25 00:17:26;;;;;;;5;3.6;;;;;;;;;;;;;
2022/08/25 00:19:55;;;;;;;5.9;3.8;;;;;;;;;;;;;
2022/08/25 00:22:24;;;;;;;4.2;3.6;;;;;;;;;;;;;
2022/08/25 00:24:52;;;;;;;6.1;3.6;;;;;;;;;;;;;
2022/08/25 00:27:21;;;;;;;3.9;3.5;;;;;;;;;;;;;
2022/08/25 00:29:57;;;;;;;4.7;3.7;;;;;;;;;;;;;
2022/08/25 00:32:27;;;;;;;4;3.5;;;;;;;;;;;;;
2022/08/25 00:34:54;;;;;;;3.7;3.4;;;;;;;;;;;;;
2022/08/25 00:37:22;;;;;;;6.5;4.3;;;;;;;;;;;;;
2022/08/25 00:39:49;;;;;;;6.5;4.3;;;;;;;;;;;;;
2022/08/25 00:42:14;;;;;;;7.5;4.2;;;;;;;;;;;;;
2022/08/25 00:44:39;;;;;;;4.7;3.7;;;;;;;;;;;;;
2022/08/25 00:47:04;;;;;;;5.3;4;;;;;;;;;;;;;
2022/08/25 00:49:38;;;;;;;5.7;4.2;;;;;;;;;;;;;
2022/08/25 00:52:03;;;;;;;5.5;3.8;;;;;;;;;;;;;
2022/08/25 00:54:33;;;;;;;4.1;3.7;;;;;;;;;;;;;
2022/08/25 00:56:58;;;;;;;5;4;;;;;;;;;;;;;
2022/08/25 00:59:23;;;;;;;4;3.6;;;;;;;;;;;;;
2022/08/25 01:01:48;;;;;;;4.5;3.9;;;;;;;;;;;;;
2022/08/25 01:04:13;;;;;;;4.8;3.7;;;;;;;;;;;;;
2022/08/25 01:06:38;;;;;;;4.6;4;;;;;;;;;;;;;
2022/08/25 01:09:05;;;;;;;4.4;4;;;;;;;;;;;;;
2022/08/25 01:11:29;;;;;;;5.7;3.8;;;;;;;;;;;;;
2022/08/25 01:13:55;;;;;;;4.7;4.2;;;;;;;;;;;;;
2022/08/25 01:16:21;;;;;;;4.6;4.1;;;;;;;;;;;;;
2022/08/25 01:18:46;;;;;;;4.2;3.8;;;;;;;;;;;;;
2022/08/25 01:21:11;;;;;;;4.2;3.8;;;;;;;;;;;;;
2022/08/25 01:23:36;;;;;;;5.1;4;;;;;;;;;;;;;
2022/08/25 01:26:01;;;;;;;4.5;4.1;;;;;;;;;;;;;
2022/08/25 01:28:26;;;;;;;5.5;3.9;;;;;;;;;;;;;
2022/08/25 01:30:52;;;;;;;4.8;4;;;;;;;;;;;;;
2022/08/25 01:33:17;;;;;;;4.8;4;;;;;;;;;;;;;
2022/08/25 01:35:43;;;;;;;4.6;4.2;;;;;;;;;;;;;
2022/08/25 01:38:08;;;;;;;7.2;4;;;;;;;;;;;;;
2022/08/25 01:40:36;;;;;;;4.9;4.3;;;;;;;;;;;;;
2022/08/25 01:43:01;;;;;;;5.8;4.4;;;;;;;;;;;;;
2022/08/25 01:45:26;;;;;;;4.5;4.1;;;;;;;;;;;;;
2022/08/25 01:47:52;;;;;;;5.4;4.5;;;;;;;;;;;;;
2022/08/25 01:50:17;;;;;;;5.2;4;;;;;;;;;;;;;
2022/08/25 01:52:44;;;;;;;4.1;3.7;;;;;;;;;;;;;
2022/08/25 01:55:09;;;;;;;5.2;3.8;;;;;;;;;;;;;
2022/08/25 01:57:35;;;;;;;4.5;4.1;;;;;;;;;;;;;
2022/08/25 02:00:00;;;;;;;4.2;3.8;;;;;;;;;;;;;
2022/08/25 02:02:27;;;;;;;4.9;4.2;;;;;;;;;;;;;
2022/08/25 02:04:52;;;;;;;4;3.6;;;;;;;;;;;;;
2022/08/25 02:07:18;;;;;;;4.7;3.9;;;;;;;;;;;;;
2022/08/25 02:09:43;;;;;;;4.7;3.7;;;;;;;;;;;;;
2022/08/25 02:12:08;;;;;;;3.7;3.4;;;;;;;;;;;;;
2022/08/25 02:14:34;;;;;;;4.3;3.9;;;;;;;;;;;;;
2022/08/25 02:17:00;;;;;;;4.3;3.9;;;;;;;;;;;;;
2022/08/25 02:19:25;;;;;;;4.7;3.7;;;;;;;;;;;;;
2022/08/25 02:21:50;;;;;;;4.2;3.8;;;;;;;;;;;;;
2022/08/25 02:24:15;;;;;;;4.3;3.9;;;;;;;;;;;;;
2022/08/25 02:26:41;;;;;;;4;3.6;;;;;;;;;;;;;
2022/08/25 02:29:06;;;;;;;5.2;4;;;;;;;;;;;;;
2022/08/25 02:31:31;;;;;;;5.1;4.1;;;;;;;;;;;;;
2022/08/25 02:33:56;;;;;;;4.7;4.3;;;;;;;;;;;;;
2022/08/25 02:36:22;;;;;;;4.6;4;;;;;;;;;;;;;
2022/08/25 02:38:48;;;;;;;5;4.3;;;;;;;;;;;;;
2022/08/25 02:41:13;;;;;;;5.5;4.3;;;;;;;;;;;;;
2022/08/25 02:43:40;;;;;;;4.7;4.3;;;;;;;;;;;;;
2022/08/25 02:46:04;;;;;;;4.1;3.7;;;;;;;;;;;;;
2022/08/25 02:48:31;;;;;;;4.8;4.3;;;;;;;;;;;;;
2022/08/25 02:50:56;;;;;;;4.2;3.8;;;;;;;;;;;;;
2022/08/25 02:53:22;;;;;;;5.2;4;;;;;;;;;;;;;
2022/08/25 02:55:48;;;;;;;4.5;4.1;;;;;;;;;;;;;
2022/08/25 02:58:13;;;;;;;4.8;3.9;;;;;;;;;;;;;
2022/08/25 03:00:38;;;;;;;8.1;4.7;;;;;;;;;;;;;
2022/08/25 03:03:05;;;;;;;5.6;4.2;;;;;;;;;;;;;
2022/08/25 03:05:30;;;;;;;5.1;3.9;;;;;;;;;;;;;
2022/08/25 03:07:55;;;;;;;5.6;4.4;;;;;;;;;;;;;
2022/08/25 03:10:20;;;;;;;5.8;4.2;;;;;;;;;;;;;
2022/08/25 03:12:47;;;;;;;6.3;4.2;;;;;;;;;;;;;
2022/08/25 03:15:15;;;;;;;5.7;4.6;;;;;;;;;;;;;
2022/08/25 03:17:37;;;;;;;4.9;4.2;;;;;;;;;;;;;
2022/08/25 03:20:02;;;;;;;7.3;4.8;;;;;;;;;;;;;
2022/08/25 03:22:28;;;;;;;4.7;4.2;;;;;;;;;;;;;
2022/08/25 03:26:52;;;;;;;4.8;4.2;;;;;;;;;;;;;
2022/08/25 03:27:18;;;;;;;5.1;4.6;;;;;;;;;;;;;
2022/08/25 03:29:44;;;;;;;4.8;4.4;;;;;;;;;;;;;
2022/08/25 03:32:08;;;;;;;5.3;4;;;;;;;;;;;;;
2022/08/25 03:34:34;;;;;;;4.8;4.1;;;;;;;;;;;;;
2022/08/25 03:36:59;;;;;;;7;4.4;;;;;;;;;;;;;
2022/08/25 03:39:24;;;;;;;5.3;4.2;;;;;;;;;;;;;
2022/08/25 03:41:50;;;;;;;8.1;4.8;;;;;;;;;;;;;
2022/08/25 03:44:15;;;;;;;6.5;4.6;;;;;;;;;;;;;
2022/08/25 03:46:42;;;;;;;5.4;4.5;;;;;;;;;;;;;
2022/08/25 03:49:06;;;;;;;5.6;4.6;;;;;;;;;;;;;
2022/08/25 03:51:32;;;;;;;4.7;4;;;;;;;;;;;;;
2022/08/25 03:53:57;;;;;;;5.2;4.7;;;;;;;;;;;;;
2022/08/25 03:56:22;;;;;;;4.7;4.3;;;;;;;;;;;;;
2022/08/25 03:58:47;;;;;;;4.7;4.3;;;;;;;;;;;;;
2022/08/25 04:02:32;;;;;;;4.9;4.4;;;;;;;14.15;88.6748;938.5634;;;;
2022/08/25 04:04:56;;;;;;;4.9;4.4;;;;;;;14.24;88.46094;938.5586;;;;
2022/08/25 04:07:25;;;;;;;4.6;4.2;;;;;;;14.21;89.81348;938.4967;;;;
2022/08/25 04:09:51;;;;;;;6.5;4.6;;;;;;;14.26;89.57031;938.4992;;;;
2022/08/25 04:12:18;;;;;;;4.6;4.2;;;;;;;14.29;89.16309;938.5143;;;;
2022/08/25 04:14:43;;;;;;;4.8;4.3;;;;;;;14.32;88.71875;938.5598;;;;
2022/08/25 04:17:09;;;;;;;8;4.3;;;;;;;14.32;88.70898;938.5839;;;;
2022/08/25 04:23:04;;;;;;;5.4;4.9;;;;;;;14.12;89.73926;938.5531;;;;
2022/08/25 04:25:31;;;;;;;5.5;4.8;;;;;;;14;90.17383;938.5477;;;;
2022/08/25 04:27:58;;;;;;;14.9;13.5;;;;;;;13.96;90.70508;938.5983;;;;
2022/08/25 04:30:23;;;;;;;5.8;5.3;;;;;;;13.97;90.44434;938.5854;;;;
2022/08/25 04:32:49;;;;;;;7.1;4.7;;;;;;;14.04;89.80371;938.5391;;;;
2022/08/25 04:35:17;;;;;;;4.8;4.4;;;;;;;14.11;89.25098;938.6525;;;;
2022/08/25 04:37:42;;;;;;;6.4;4.1;;;;;;;14.15;88.93945;938.6772;;;;
2022/08/25 04:40:16;;;;;;;6.3;4.6;;;;;;;14.18;88.44922;938.6473;;;;
2022/08/25 04:42:48;;;;;;;8.6;5.2;;;;;;;14.08;89.2334;938.6799;;;;
2022/08/25 04:50:46;;;;;;;7.8;4.7;;;;;;;14.09;89.65137;938.6285;;;;
2022/08/25 04:53:15;;;;;;;5.3;4.8;;;;;;;14.15;89.23828;938.658;;;;
2022/08/25 04:55:45;;;;;;;11.3;5.7;;;;;;;14.25;88.9248;938.7372;;;;
2022/08/25 05:02:08;;;;;;;7.1;5.1;;;;;;;14.21;88.98438;938.7618;;;;
2022/08/25 05:04:33;;;;;;;8.9;4.8;;;;;;;14.33;88.60547;938.7584;;;;
2022/08/25 05:07:06;;;;;;;7.7;5.2;;;;;;;14.45;87.7207;938.7449;;;;
2022/08/25 05:09:36;;;;;;;7.7;4.8;;;;;;;14.49;87.29102;938.7527;;;;
2022/08/25 05:12:01;;;;;;;5.8;4.3;;;;;;;14.48;87.34668;938.7672;;;;
2022/08/25 05:14:29;;;;;;;7.2;4.8;;;;;;;14.41;87.86328;938.7148;;;;
2022/08/25 05:16:54;;;;;;;7.6;4.9;;;;;;;14.37;88.29199;938.7438;;;;
2022/08/25 05:19:19;;;;;;;8.3;5.3;;;;;;;14.35;88.36719;938.6614;;;;
2022/08/25 05:21:45;;;;;;;5.9;4.5;;;;;;;14.46;87.95117;938.6311;;;;
2022/08/25 05:24:10;;;;;;;5.7;4.6;;;;;;;14.5;87.55957;938.5859;;;;
2022/08/25 05:26:39;;;;;;;7.9;5;;;;;;;14.55;87.82227;938.5906;;;;
2022/08/25 05:29:04;;;;;;;8;5.1;;;;;;;14.57;87.47949;938.6361;;;;
2022/08/25 05:31:30;;;;;;;11;5.5;;;;;;;14.55;87.61426;938.601;;;;
2022/08/25 05:33:55;;;;;;;6.9;4.9;;;;;;;14.6;87.41797;938.5991;;;;
2022/08/25 05:36:23;;;;;;;6.4;5.3;;;;;;;14.69;88.36914;938.5396;;;;
2022/08/25 05:38:48;;;;;;;7;4.3;;;;;;;15.74;84.84961;938.4662;;;;
2022/08/25 05:41:16;;;;;;;7.2;3.7;;;;;;;17.25;76.58496;938.4155;;;;
2022/08/25 05:43:41;;;;;;;7;3.4;;;;;;;18.6;71.17969;938.39;;;;
2022/08/25 05:46:08;;;;;;;7.1;3.3;;;;;;;19.9;66.05762;938.3731;;;;
2022/08/25 05:48:33;;;;;;;6.8;3.2;;;;;;;20.82;62.10449;938.3642;;;;
2022/08/25 05:51:01;;;;;;;3.5;2.9;;;;;;;21.33;59.96289;938.3788;;;;
2022/08/25 05:53:31;;;;;;;9;3.8;;;;;;;21.69;59.90723;938.3953;;;;
2022/08/25 05:55:55;;;;;;;3.6;2.9;;;;;;;22;57.28906;938.2713;;;;
2022/08/25 05:58:21;;;;;;;4;2.5;;;;;;;22.88;55.4541;938.3103;;;;
2022/08/25 06:00:49;;;;;;;3.3;2.7;;;;;;;23.4;53.83691;938.3475;;;;
2022/08/25 06:03:15;;;;;;;3.6;2.6;;;;;;;24.3;51.33008;938.2502;;;;
2022/08/25 06:05:43;;;;;;;3.4;2.4;;;;;;;24.38;50.51465;938.2524;;;;
2022/08/25 06:08:08;;;;;;;3.5;2.5;;;;;;;26.06;46.9668;938.2592;;;;
2022/08/25 06:10:36;;;;;;;2.7;2.2;;;;;;;27.07;44.86719;938.2294;;;;
2022/08/25 06:13:01;;;;;;;2.5;2.2;;;;;;;27.28;43.32324;938.2461;;;;
2022/08/25 06:15:38;;;;;;;2.5;2.3;;;;;;;28.27;42.00488;938.2475;;;;
2022/08/25 06:18:07;;;;;;;2.3;2.1;;;;;;;28.9;40.37305;938.1469;;;;
2022/08/25 06:20:32;;;;;;;2.5;2;;;;;;;28.1;41.2998;938.2244;;;;
2022/08/25 06:22:58;;;;;;;2.2;2;;;;;;;27.01;43.06055;938.2145;;;;
2022/08/25 06:25:31;;;;;;;2.4;2.2;;;;;;;27.33;42.74707;938.2211;;;;
2022/08/25 06:27:52;;;;;;;5.3;2.6;;;;;;;28.11;41.16992;938.1901;;;;
2022/08/25 06:30:23;;;;;;;3.1;2.2;;;;;;;28.31;40.51074;938.1717;;;;
2022/08/25 06:32:48;;;;;;;4.3;2.3;;;;;;;29.84;38.42969;938.1869;;;;
2022/08/25 06:35:20;;;;;;;2.7;2.5;;;;;;;30.12;37.15234;938.1558;;;;
2022/08/25 06:37:45;;;;;;;4.2;2.3;;;;;;;31.09;36.50293;938.1489;;;;
2022/08/25 06:40:16;;;;;;;4.2;2.4;;;;;;;30.27;36.55566;938.1261;;;;
2022/08/25 06:42:43;;;;;;;2.6;2.3;;;;;;;27.14;42.37305;938.1193;;;;
2022/08/25 06:45:09;;;;;;;2.9;2.2;;;;;;;28.32;41.36719;937.9808;;;;
2022/08/25 06:47:34;;;;;;;2.8;2.2;;;;;;;28.4;40.66016;938.0033;;;;
2022/08/25 06:50:04;;;;;;;3.3;2.3;;;;;;;26.66;43.80859;937.9756;;;;
2022/08/25 06:52:28;;;;;;;3.3;2;;;;;;;27.67;42.89844;937.9133;;;;
2022/08/25 06:54:54;;;;;;;2.7;1.9;;;;;;;29.25;40.23828;937.8979;;;;
2022/08/25 06:57:20;;;;;;;2.8;2.4;;;;;;;28.95;39.29395;937.9239;;;;
2022/08/25 06:59:45;;;;;;;3;2.1;;;;;;;30.6;36.72559;937.97;;;;
2022/08/25 07:02:10;;;;;;;2.4;2.2;;;;;;;29.63;37.6123;937.9392;;;;
2022/08/25 07:04:35;;;;;;;2.4;2.2;;;;;;;29.51;38.67578;937.9481;;;;
2022/08/25 07:07:04;;;;;;;2.2;2;;;;;;;29.25;40.40332;937.9042;;;;
2022/08/25 07:09:29;;;;;;;2.1;2;;;;;;;28.78;39.77832;937.9266;;;;
2022/08/25 07:11:55;;;;;;;3.8;2.1;;;;;;;27.95;41.26172;937.9511;;;;
2022/08/25 07:14:20;;;;;;;2.6;2.1;;;;;;;29.68;38.63086;937.9431;;;;
2022/08/25 07:16:48;;;;;;;2.4;2;;;;;;;29.95;36.67383;937.8812;;;;
2022/08/25 07:19:13;;;;;;;3.5;2.5;;;;;;;28.37;41.03906;937.9583;;;;
2022/08/25 07:21:40;;;;;;;2.3;2.1;;;;;;;27.09;42.44043;937.9703;;;;
2022/08/25 07:24:05;;;;;;;2;1.9;;;;;;;28.58;39.5957;937.9309;;;;
2022/08/25 07:26:33;;;;;;;2.6;2.2;;;;;;;28.54;40.9707;937.9416;;;;
2022/08/25 07:28:57;;;;;;;1.9;1.8;;;;;;;28.07;41.12988;937.9602;;;;
2022/08/25 07:31:23;;;;;;;2;1.9;;;;;;;30.24;36.18359;937.9231;;;;
2022/08/25 07:35:16;;;;;;;2.2;2;;;;;;;30.69;35.83691;937.9216;;;;
2022/08/25 07:36:15;;;;;;;3.6;2.2;;;;;;;32.27;34.12695;937.9155;;;;
2022/08/25 07:38:40;;;;;;;2.7;1.9;;;;;;;33.21;32.62402;937.9246;;;;
2022/08/25 07:41:09;;;;;;;2.5;2;;;;;;;32.55;33.15234;937.8811;;;;
2022/08/25 07:43:38;;;;;;;1.9;1.6;;;;;;;33.95;32.78613;937.8748;;;;
2022/08/25 07:46:02;;;;;;;2.1;2;;;;;;;34.49;31.30566;937.8279;;;;
2022/08/25 07:48:28;;;;;;;1.8;1.7;;;;;;;33.51;32.78906;937.7725;;;;
2022/08/25 07:50:53;;;;;;;2.2;2.1;;;;;;;33.98;33.16113;937.7567;;;;
2022/08/25 07:53:22;;;;;;;2;1.9;;;;;;;34.13;33.21875;937.7748;;;;
2022/08/25 07:55:47;;;;;;;2.3;2.1;;;;;;;32.91;33.83887;937.7285;;;;
2022/08/25 07:58:18;;;;;;;2.5;2;;;;;;;34.08;32.78223;937.7145;;;;
2022/08/25 08:00:51;;;;;;;2;1.9;;;;;;;34.82;32.72656;937.7446;;;;
2022/08/25 08:03:14;;;;;;;3.4;2;;;;;;;34.7;31.63379;937.7001;;;;
2022/08/25 08:05:39;;;;;;;2.2;2;;;;;;;36.62;29.58789;937.6894;;;;
2022/08/25 08:08:09;;;;;;;1.9;1.8;;;;;;;35.5;33.06543;937.7163;;;;
2022/08/25 08:10:36;;;;;;;2.1;1.9;;;;;;;36.69;30.07617;937.7035;;;;
2022/08/25 08:13:08;;;;;;;2;1.9;;;;;;;37.56;26.99121;937.6987;;;;
2022/08/25 16:25:01;;;;;;;2.9;2.2;;;;;;;27.85;45.29004;935.8784;;;;
2022/08/25 16:27:38;;;;;;;2.9;2.4;;;;;;;27.81;45.77246;935.8683;;;;
2022/08/25 16:30:08;;;;;;;2.6;2.4;;;;;;;27.93;45.55957;935.8489;;;;
2022/08/25 16:32:40;;;;;;;2.7;2.5;;;;;;;27.97;45.61133;935.8716;;;;
2022/08/25 16:35:06;;;;;;;2.4;2.2;;;;;;;27.76;45.40039;935.884;;;;
2022/08/25 16:37:32;;;;;;;2.3;2.1;;;;;;;27.89;45.37695;935.8848;;;;
2022/08/25 16:39:59;;;;;;;2.7;2.2;;;;;;;27.99;44.78125;935.8942;;;;
2022/08/25 16:42:33;;;;;;;3.5;2.2;;;;;;;27.9;45.5332;935.9071;;;;
2022/08/25 16:45:00;;;;;;;2.3;2.1;;;;;;;27.97;45.84863;935.8928;;;;
2022/08/25 16:47:29;;;;;;;2.4;2.1;;;;;;;28.02;45.23535;935.8671;;;;
2022/08/25 16:50:44;;;;;;;3.1;2.6;;;;;;;28.02;48.78711;935.8677;;;;
2022/08/25 16:55:35;;;;;;;3.7;2.6;;;;;;;27.4;52.30273;935.9175;;;;
2022/08/25 16:58:10;;;;;;;4.1;2.5;;;;;;;26.99;54.68457;935.8721;;;;
2022/08/25 17:00:37;;;;;;;3.1;2.7;;;;;;;26.47;56.72949;935.8201;;;;
2022/08/25 17:03:11;;;;;;;4.5;2.8;;;;;;;26.13;57.18262;935.8276;;;;
2022/08/25 17:05:35;;;;;;;6.3;3.1;;;;;;;25.9;57.43652;935.8049;;;;
2022/08/25 17:10:35;;;;;;;3.2;2.9;;;;;;;25.63;58.27734;935.7997;;;;
2022/08/25 17:13:01;;;;;;;3;2.7;;;;;;;25.25;59.91602;935.8538;;;;
2022/08/25 17:15:28;;;;;;;3.5;2.9;;;;;;;25.24;60.37402;935.8619;;;;
2022/08/25 17:17:53;;;;;;;3.1;2.7;;;;;;;25.23;60.12598;935.8996;;;;
2022/08/25 17:20:20;;;;;;;3.2;2.9;;;;;;;25.24;60.04395;935.8895;;;;
2022/08/25 17:22:46;;;;;;;4;2.8;;;;;;;25.24;60.3877;935.9082;;;;
2022/08/25 17:25:11;;;;;;;3.3;3;;;;;;;25.25;59.49121;935.9158;;;;
2022/08/25 17:27:37;;;;;;;3.3;3;;;;;;;25.29;59.2373;935.8492;;;;
2022/08/25 17:30:02;;;;;;;3.3;3;;;;;;;25.33;58.59277;935.9445;;;;
2022/08/25 17:32:31;;;;;;;2.9;2.6;;;;;;;25.32;59.07617;935.9154;;;;
2022/08/25 17:34:56;;;;;;;3.9;3.4;;;;;;;25.27;59.87109;935.9425;;;;
2022/08/25 17:37:25;;;;;;;4.4;3.1;;;;;;;25.21;58.90723;935.9306;;;;
2022/08/25 17:39:56;;;;;;;3.5;3.2;;;;;;;25.15;58.42773;935.9216;;;;
2022/08/25 17:42:21;;;;;;;4.4;3.5;;;;;;;25.05;58.34375;935.9598;;;;
2022/08/25 17:44:50;;;;;;;4.8;3.1;;;;;;;24.95;59.55762;935.9816;;;;
2022/08/25 17:47:16;;;;;;;3.5;2.8;;;;;;;24.81;60.03516;935.9528;;;;
2022/08/25 17:49:45;;;;;;;7.7;3.4;;;;;;;24.58;61.7002;936.0356;;;;
2022/08/25 17:52:11;;;;;;;3.8;3.2;;;;;;;24.35;62.86035;935.9867;;;;
2022/08/25 17:54:35;;;;;;;5.7;3.6;;;;;;;24.29;63.66309;935.9899;;;;
2022/08/25 17:57:01;;;;;;;3.9;3.1;;;;;;;24.2;64.0166;935.9917;;;;
2022/08/25 17:59:29;;;;;;;5.6;3.7;;;;;;;24.14;63.99512;935.9905;;;;
2022/08/25 18:01:58;;;;;;;4.3;3.6;;;;;;;24.08;64.04492;936.0153;;;;
2022/08/25 18:04:24;;;;;;;5.9;3.5;;;;;;;24.02;64.34375;936.095;;;;
2022/08/25 18:06:50;;;;;;;3.4;3.1;;;;;;;23.96;63.66309;936.1362;;;;
2022/08/25 18:09:17;;;;;;;3.6;3.3;;;;;;;23.87;64.23926;936.1255;;;;
2022/08/25 18:11:42;;;;;;;5.7;4.3;;;;;;;23.66;64.13867;936.2028;;;;
2022/08/25 18:14:07;;;;;;;4.1;3.7;;;;;;;23.63;64.95703;936.2093;;;;
2022/08/25 18:16:35;;;;;;;4.7;4.2;;;;;;;23.6;65.2002;936.2592;;;;
2022/08/25 18:19:01;;;;;;;7.5;4;;;;;;;23.58;65.13672;936.2487;;;;
2022/08/25 18:21:26;;;;;;;5.5;3.6;;;;;;;23.57;65.51367;936.1911;;;;
2022/08/25 18:23:55;;;;;;;4.6;3.6;;;;;;;23.6;65.5293;936.32;;;;
2022/08/25 18:26:21;;;;;;;7.6;6.5;;;;;;;23.61;65.50684;936.3;;;;
2022/08/25 18:28:45;;;;;;;8.9;7.4;;;;;;;23.58;65.19727;936.302;;;;
2022/08/25 18:31:11;;;;;;;6.4;4.9;;;;;;;23.54;65.28613;936.3377;;;;
2022/08/25 18:33:36;;;;;;;4.7;4;;;;;;;23.53;64.87207;936.3439;;;;
2022/08/25 18:36:04;;;;;;;4.7;3.7;;;;;;;23.44;64.75391;936.311;;;;
2022/08/25 18:40:55;;;;;;;4;3.4;;;;;;;23.39;65.53418;936.3326;;;;
2022/08/25 18:43:20;;;;;;;4.6;3.4;;;;;;;23.3;65.625;936.3422;;;;
2022/08/25 18:45:49;;;;;;;4.9;3.6;;;;;;;23.26;66.01953;936.3334;;;;
2022/08/25 18:48:14;;;;;;;4.7;3.5;;;;;;;23.17;65.60645;936.2953;;;;
2022/08/25 18:50:40;;;;;;;5;4.5;;;;;;;23.1;65.98438;936.2706;;;;
2022/08/25 18:53:05;;;;;;;4.8;4.3;;;;;;;23.02;66.52344;936.3641;;;;
2022/08/25 18:55:34;;;;;;;5.3;4.1;;;;;;;22.96;66.40918;936.3592;;;;
2022/08/25 18:57:59;;;;;;;5.7;4.2;;;;;;;22.91;66.70801;936.3455;;;;
2022/08/25 19:00:28;;;;;;;4.7;3.9;;;;;;;22.87;67.10059;936.3335;;;;
2022/08/25 19:02:53;;;;;;;6.3;4.1;;;;;;;22.83;67.16406;936.3403;;;;
2022/08/25 19:05:21;;;;;;;5.3;3.7;;;;;;;22.8;67.65332;936.3198;;;;
2022/08/25 19:07:51;;;;;;;4.1;3.7;;;;;;;22.71;67.99219;936.3516;;;;
2022/08/25 19:10:16;;;;;;;4.4;4;;;;;;;22.67;67.95117;936.3801;;;;
2022/08/25 19:12:44;;;;;;;7.7;4.2;;;;;;;22.63;67.71094;936.4044;;;;
2022/08/25 19:15:10;;;;;;;5.2;4.3;;;;;;;22.48;67.55859;936.3508;;;;
2022/08/25 19:17:34;;;;;;;6.2;4.5;;;;;;;22.47;67.50977;936.361;;;;
2022/08/25 19:20:02;;;;;;;4.7;4.3;;;;;;;22.44;67.7168;936.3628;;;;
2022/08/25 19:22:27;;;;;;;6.3;4.1;;;;;;;22.38;67.97754;936.3773;;;;
2022/08/25 19:24:53;;;;;;;6.4;4.5;;;;;;;22.31;68.42383;936.3881;;;;
2022/08/25 19:27:18;;;;;;;6.4;4.4;;;;;;;22.32;68.54199;936.3383;;;;
2022/08/25 19:29:45;;;;;;;4.8;4.3;;;;;;;22.31;68.96484;936.3505;;;;
2022/08/25 19:32:10;;;;;;;5;4;;;;;;;22.25;69.27148;936.3392;;;;
2022/08/25 19:34:37;;;;;;;5.8;4;;;;;;;22.12;69.25;936.3441;;;;
2022/08/25 19:37:03;;;;;;;5.1;4.6;;;;;;;22.07;69.57129;936.4076;;;;
2022/08/25 19:39:28;;;;;;;7;4.6;;;;;;;22.03;69.64551;936.4152;;;;
2022/08/25 19:41:55;;;;;;;5.6;4;;;;;;;21.98;69.65137;936.3519;;;;
2022/08/25 19:44:19;;;;;;;4.7;4.2;;;;;;;21.94;69.82031;936.416;;;;
2022/08/25 19:46:44;;;;;;;4.7;3.8;;;;;;;21.93;69.86523;936.3563;;;;
2022/08/25 19:49:09;;;;;;;4.5;4;;;;;;;21.8;69.96289;936.3387;;;;
2022/08/25 19:51:34;;;;;;;5.2;4.5;;;;;;;21.73;70.44141;936.4771;;;;
2022/08/25 19:54:00;;;;;;;5.9;4.4;;;;;;;21.7;70.8252;936.4476;;;;
2022/08/25 19:56:29;;;;;;;5;4.6;;;;;;;21.64;70.99121;936.4033;;;;
2022/08/25 19:58:53;;;;;;;5.4;4.5;;;;;;;21.59;71.29883;936.4604;;;;
2022/08/25 20:01:22;;;;;;;4.3;3.6;;;;;;;21.55;71.37598;936.4398;;;;
2022/08/25 20:03:47;;;;;;;5.1;4.6;;;;;;;21.47;71.48828;936.5233;;;;
2022/08/25 20:06:12;;;;;;;5.7;4.6;;;;;;;21.38;72.01367;936.509;;;;
2022/08/25 20:08:40;;;;;;;6.2;4.4;;;;;;;21.34;72.00684;936.5494;;;;
2022/08/25 20:11:05;;;;;;;5.4;4.4;;;;;;;21.29;72.15137;936.611;;;;
2022/08/25 20:13:30;;;;;;;6.5;4.7;;;;;;;21.22;72.61914;936.5754;;;;
2022/08/25 20:15:58;;;;;;;5.1;4.2;;;;;;;21.2;72.69824;936.6128;;;;
2022/08/25 20:18:26;;;;;;;4.3;3.9;;;;;;;21.04;72.78906;936.5873;;;;
2022/08/25 20:20:51;;;;;;;4.9;3.9;;;;;;;20.97;72.64941;936.5756;;;;
2022/08/25 20:25:41;;;;;;;5.5;4.8;;;;;;;20.93;72.64258;936.5995;;;;
2022/08/25 20:28:10;;;;;;;4.8;4.4;;;;;;;20.88;72.25879;936.6094;;;;
2022/08/25 20:30:35;;;;;;;5.4;4.7;;;;;;;20.87;72.35254;936.6599;;;;
2022/08/25 20:33:04;;;;;;;6.7;5.3;;;;;;;20.88;72.2959;936.593;;;;
2022/08/25 20:35:29;;;;;;;5.6;5;;;;;;;20.86;72.53711;936.6278;;;;
2022/08/25 20:37:57;;;;;;;5.3;4.8;;;;;;;20.83;72.84766;936.632;;;;
2022/08/25 20:40:22;;;;;;;4.9;4.4;;;;;;;20.8;73.22949;936.6294;;;;
2022/08/25 20:42:50;;;;;;;4.8;4.2;;;;;;;20.69;73.6543;936.6591;;;;
2022/08/25 20:45:20;;;;;;;5.9;4.4;;;;;;;20.65;73.625;936.6641;;;;
2022/08/25 20:47:49;;;;;;;5.2;3.8;;;;;;;20.6;73.67578;936.6468;;;;
2022/08/25 20:50:15;;;;;;;4.8;4.3;;;;;;;20.54;74.0166;936.66;;;;
2022/08/25 20:52:43;;;;;;;5.3;4.7;;;;;;;20.52;74.07031;936.7045;;;;
2022/08/25 20:55:08;;;;;;;5.7;4.3;;;;;;;20.47;74.1084;936.7126;;;;
2022/08/25 20:57:37;;;;;;;4.7;4.3;;;;;;;20.43;74.06738;936.6135;;;;
2022/08/25 21:00:11;;;;;;;5.9;4.3;;;;;;;20.31;74.88867;936.6424;;;;
2022/08/25 21:02:40;;;;;;;5.4;4.3;;;;;;;20.24;75.16797;936.6763;;;;
2022/08/25 21:05:14;;;;;;;5;4.1;;;;;;;20.27;75.02051;936.6501;;;;
2022/08/25 21:07:45;;;;;;;5.1;4.6;;;;;;;20.29;74.89551;936.6269;;;;
2022/08/25 21:10:17;;;;;;;5.1;4.6;;;;;;;20.22;74.91992;936.6758;;;;
2022/08/25 21:12:47;;;;;;;5;4.6;;;;;;;20.18;75.15723;936.6647;;;;
2022/08/25 21:15:11;;;;;;;4.9;4.4;;;;;;;20.15;75.3877;936.5797;;;;
2022/08/25 21:17:36;;;;;;;5;4.4;;;;;;;20.12;75.2998;936.6178;;;;
2022/08/25 21:20:01;;;;;;;6.5;5;;;;;;;20.13;75.28809;936.6267;;;;
2022/08/25 21:22:27;;;;;;;6.3;4.6;;;;;;;20.07;75.26563;936.6608;;;;
2022/08/25 21:24:52;;;;;;;7.4;4.9;;;;;;;19.85;75.95313;936.6611;;;;
2022/08/25 21:27:18;;;;;;;6.6;4.8;;;;;;;19.76;76.39258;936.652;;;;
2022/08/25 21:29:43;;;;;;;7.1;4.8;;;;;;;19.78;75.96387;936.6531;;;;
2022/08/25 21:32:12;;;;;;;4.7;4.3;;;;;;;19.71;76.32324;936.6342;;;;
2022/08/25 21:34:38;;;;;;;6.3;4.8;;;;;;;19.4;77.44824;936.6386;;;;
2022/08/25 21:37:05;;;;;;;4.9;4.5;;;;;;;19.28;77.94043;936.5949;;;;
2022/08/25 21:39:31;;;;;;;4.7;4.3;;;;;;;19.37;77.68848;936.5966;;;;
2022/08/25 21:41:59;;;;;;;5.5;4.6;;;;;;;19.29;78.20996;936.5948;;;;
2022/08/25 21:44:24;;;;;;;4.8;4.3;;;;;;;19.14;78.97461;936.6209;;;;
2022/08/25 21:46:49;;;;;;;4.7;4.2;;;;;;;19.23;78.76953;936.5793;;;;
2022/08/25 21:49:15;;;;;;;6.6;4.5;;;;;;;19.21;79.05566;936.6411;;;;
2022/08/25 21:51:41;;;;;;;4.9;4.4;;;;;;;19.28;78.80273;936.6208;;;;
2022/08/25 21:54:12;;;;;;;4.9;4.4;;;;;;;19.35;78.51074;936.6069;;;;
2022/08/25 21:56:31;;;;;;;5;4.5;;;;;;;19.44;78.07227;936.6403;;;;
2022/08/25 21:58:59;;;;;;;4.8;4.4;;;;;;;19.49;77.47656;936.6703;;;;
2022/08/25 22:01:26;;;;;;;5.7;4.7;;;;;;;19.51;77.46777;936.6844;;;;
2022/08/25 22:03:51;;;;;;;5.2;4.7;;;;;;;19.5;77.50098;936.6573;;;;
2022/08/25 22:06:21;;;;;;;5.3;4.8;;;;;;;19.49;77.4043;936.6939;;;;
2022/08/25 22:08:44;;;;;;;5.1;4.4;;;;;;;19.4;77.62305;936.6813;;;;
2022/08/25 22:11:12;;;;;;;4.7;4.2;;;;;;;19.3;78.02539;936.7074;;;;
2022/08/25 22:13:37;;;;;;;5.4;4.3;;;;;;;19.35;77.83496;936.6594;;;;
2022/08/25 22:16:02;;;;;;;6.3;4.9;;;;;;;19.31;77.84082;936.6613;;;;
2022/08/25 22:18:31;;;;;;;5.2;3.9;;;;;;;19.27;77.9043;936.6244;;;;
2022/08/25 22:20:56;;;;;;;4.6;4.2;;;;;;;19.3;77.76953;936.6728;;;;
2022/08/25 22:23:23;;;;;;;4.7;4.3;;;;;;;19.32;77.74902;936.6286;;;;
2022/08/25 22:25:48;;;;;;;5;4.2;;;;;;;19.3;77.7793;936.6624;;;;
2022/08/25 22:28:15;;;;;;;5.1;4.6;;;;;;;19.27;77.75293;936.6883;;;;
2022/08/25 22:30:41;;;;;;;4.9;4.4;;;;;;;19.26;77.98438;936.6649;;;;
2022/08/25 22:33:07;;;;;;;4.9;4.5;;;;;;;19.2;78.11133;936.6736;;;;
2022/08/25 22:35:34;;;;;;;5.3;4.3;;;;;;;19.16;78.36133;936.6384;;;;
2022/08/25 22:37:58;;;;;;;7.3;4.9;;;;;;;19.08;78.45313;936.6533;;;;
2022/08/25 22:40:23;;;;;;;4.9;4.4;;;;;;;19.1;78.52441;936.7036;;;;
2022/08/25 22:42:49;;;;;;;4.9;4.5;;;;;;;19.08;78.40625;936.6944;;;;
2022/08/25 22:45:18;;;;;;;4.9;4.5;;;;;;;19.1;78.44238;936.7117;;;;
2022/08/25 22:47:43;;;;;;;4.8;4.3;;;;;;;19.11;78.36426;936.6744;;;;
2022/08/25 22:50:15;;;;;;;4.9;4.5;;;;;;;19.01;78.50977;936.6572;;;;
2022/08/25 22:52:41;;;;;;;5.2;4.7;;;;;;;18.77;79.51367;936.676;;;;
2022/08/25 22:55:07;;;;;;;5.2;4.7;;;;;;;18.72;79.83105;936.6996;;;;
2022/08/25 22:57:34;;;;;;;5.2;4.7;;;;;;;18.81;79.57813;936.7322;;;;
2022/08/25 22:59:59;;;;;;;4.9;4.4;;;;;;;18.86;79.26172;936.7247;;;;
2022/08/25 23:02:33;;;;;;;5.3;4.8;;;;;;;18.7;79.65332;936.7445;;;;
2022/08/25 23:04:58;;;;;;;5;4.4;;;;;;;18.74;79.31055;936.7249;;;;
2022/08/25 23:07:28;;;;;;;4.8;4.4;;;;;;;18.74;79.38086;936.6967;;;;
2022/08/25 23:09:55;;;;;;;4.9;4.4;;;;;;;18.77;79.23438;936.6839;;;;
2022/08/25 23:12:35;;;;;;;5.3;4.3;;;;;;;18.78;79.19141;936.707;;;;
2022/08/25 23:15:01;;;;;;;5.1;4.6;;;;;;;18.76;79.18652;936.7028;;;;
2022/08/25 23:17:48;;;;;;;5.7;4.7;;;;;;;18.65;79.2832;936.5489;;;;
2022/08/25 23:22:59;;;;;;;4.8;4.3;;;;;;;18.46;80.02832;936.5867;;;;
2022/08/25 23:25:30;;;;;;;5.1;4.6;;;;;;;18.39;80.44629;936.6412;;;;
2022/08/25 23:28:05;;;;;;;5.3;4.5;;;;;;;18.19;81.19824;936.7004;;;;
2022/08/25 23:30:33;;;;;;;7.4;4.7;;;;;;;18.22;81.28711;936.654;;;;
2022/08/25 23:33:00;;;;;;;5.2;4.7;;;;;;;18.18;81.55762;936.5933;;;;
2022/08/25 23:35:34;;;;;;;5;4.5;;;;;;;18.21;80.92188;936.592;;;;
2022/08/25 23:38:01;;;;;;;5.2;4.7;;;;;;;18.26;80.98926;936.6356;;;;
2022/08/25 23:40:34;;;;;;;4.9;4.4;;;;;;;18.33;80.67773;936.5863;;;;
2022/08/25 23:43:09;;;;;;;5.3;4.8;;;;;;;18.34;80.71387;936.5982;;;;
2022/08/25 23:45:34;;;;;;;5.8;5.3;;;;;;;18.34;80.54004;936.5652;;;;
2022/08/25 23:48:05;;;;;;;5.8;4.8;;;;;;;18.29;80.76367;936.5373;;;;
2022/08/25 23:50:33;;;;;;;8.4;4.8;;;;;;;18.24;80.8252;936.5664;;;;
2022/08/25 23:52:58;;;;;;;5.6;5.1;;;;;;;18.22;80.75195;936.575;;;;
2022/08/25 23:55:24;;;;;;;5;4.6;;;;;;;18.1;81.49609;936.5097;;;;
2022/08/25 23:57:50;;;;;;;6.2;4.8;;;;;;;18;82.09082;936.5416;;;;
